Yang Mei Hu — BQCG — position and weather

sailwx.info

Track history (hours):
 
Tides and Currents Weather Stations Pressure Air Temp Water Temp Dewpoint Dewpoint Depression Visibility Wind Speed Wind Dir Waves Ship Positions

Yang Mei Hu

Last reported at 2017-Jun-23 16:04 UTC. Time now 2017-Jul-21 16:45 UTC.
Position N 01°18' E 104°04'.
Warning: this ship's position is 28 days out of date.

Length 245 m; draft 9 m.

Type: Tanker. MMSI: 413858000.

Date/timePositionNaut miles runAvg speedWind from/ knotsBaromVisibWave heightAir tempDewpointWater temp
2017-Jun-23 16:04N 01°18' E 104°04'0 0.1
2017-Jun-23 13:49N 01°18' E 104°03'8 0.6
2017-Jun-22 23:01N 01°13' E 103°57'110.1
2017-Jun-22 22:56N 01°13' E 103°56'511.7
2017-Jun-22 22:28N 01°11' E 103°51'612.4
2017-Jun-22 22:00N 01°08' E 103°46'713.0
2017-Jun-22 21:30N 01°03' E 103°41'810.5
2017-Jun-22 20:45N 01°06' E 103°33'410.9
2017-Jun-22 20:24N 01°07' E 103°30'  
Track history (hours):
 
Tides and Currents Weather Stations Pressure Air Temp Water Temp Dewpoint Dewpoint Depression Visibility Wind Speed Wind Dir Waves Ship Positions

Yang Mei Hu

Last reported at 2017-Jun-23 16:04 UTC. Time now 2017-Jul-21 16:45 UTC.
Position N 01°18' E 104°04'.
Warning: this ship's position is 28 days out of date.

Length 245 m; draft 9 m.

Type: Tanker. MMSI: 413858000.

Date/timePositionNaut miles runAvg speedWind from/ knotsBaromVisibWave heightAir tempDewpointWater temp
2017-Jun-23 16:04N 01°18' E 104°04'0 0.1
2017-Jun-23 13:49N 01°18' E 104°03'8 0.6
2017-Jun-22 23:01N 01°13' E 103°57'110.1
2017-Jun-22 22:56N 01°13' E 103°56'511.7
2017-Jun-22 22:28N 01°11' E 103°51'612.4
2017-Jun-22 22:00N 01°08' E 103°46'713.0
2017-Jun-22 21:30N 01°03' E 103°41'810.5
2017-Jun-22 20:45N 01°06' E 103°33'410.9
2017-Jun-22 20:24N 01°07' E 103°30'  

Dump ship's entire track history